Terminal Aerodrome Forecast
Issued by NWS

Home | Current Version | Previous Version | Text Only | Print | Product List | Glossary On
Versions: 1 2 3 4 5 6 7 8 9 10 11 12 13 14 15 16 17 18 19 20 21 22 23 24 25 26 27 28 29 30 31 32 33 34
250
FTUS41 KOKX 152045 CCA
TAFGON
TAF COR
KGON 152045Z 1521/1618 VRB03KT P6SM -SN SCT025 BKN050
     FM152130 02004KT 2SM -SN SCT015 OVC025
      TEMPO 1523/1602 1/2SM SN VV011
     FM160300 29005KT P6SM SCT035 BKN070
     FM160500 28008KT P6SM SCT150
     FM160800 28012KT P6SM FEW070 FEW250
     FM161200 27014G20KT P6SM FEW070 FEW250
     FM161500 27019G28KT P6SM SCT040=

USA.gov is the U.S. government's official web portal to all federal, state and local government web resources and services.